EBCI - Charleroi/Gosselies, Belgium
Distance de la station: NE 18km
Mise à jour: 20/06/2019 14:50
nuageux
nuageux
 Wind from O
Vent: O 15 km/h
Température: 19°C
Point de rosée: 12°C
Humidité: 64%
Baromètre: 1014 hPa
Ciel: nuageux
Visibilité: 10 km
Détails du ciel: quelques nuages 914 m
nuageux 1372 m
2019/06/20 12:50 EBCI 201250Z 26008KT 230V300 9999 FEW030 BKN045 19/12 Q1014 NOSIG
EBFS - Florennes, Belgium
Distance de la station: ESE 31km
Mise à jour: 20/06/2019 14:55
nuageux
nuageux
 Wind from OSO
Vent: OSO 17 km/h
Température: 18°C
Point de rosée: 12°C
Humidité: 68%
Baromètre: 1014 hPa
Ciel: nuageux
Visibilité: 10 km
Détails du ciel: quelques nuages 457 m
nuageux 914 m
2019/06/20 12:55 EBFS 201255Z 24009KT 9999 FEW015 BKN030 18/12 Q1014 BLU BLU
EBCV - Chievres, Belgium
Distance de la station: NO 40km
Mise à jour: 20/06/2019 14:55
partiellement nuageux
partiellement nuageux
 Wind from OSO
Vent: OSO 17 km/h
Température: 20°C
Point de rosée: 13°C
Humidité: 64%
Baromètre: 1014 hPa
Ciel: partiellement nuageux
Visibilité: 10 km
Détails du ciel: quelques nuages 1128 m
partiellement nuageux 1890 m
2019/06/20 12:55 EBCV 201255Z AUTO 25009KT 9999 FEW037/// SCT062/// 20/13 Q1014 BLU
 
EBBE - Beauvechain, Belgium
Distance de la station: NE 57km
Mise à jour: 20/06/2019 14:55
nuageux
nuageux
 Wind from OSO
Vent: OSO 13 km/h
Température: 20°C
Point de rosée: 13°C
Humidité: 64%
Baromètre: 1013 hPa
Ciel: nuageux
Visibilité: 10 km
Détails du ciel: quelques nuages 823 m
partiellement nuageux 1524 m
nuageux 3353 m
2019/06/20 12:55 EBBE 201255Z 25007KT 9999 FEW027 SCT050 BKN110 20/13 Q1013 BLU BLU TEMPO WHT
EBBR - Brussels National, Belgium
Distance de la station: NNE 63km
Mise à jour: 20/06/2019 14:50
quelques nuages
quelques nuages
 Wind from O
Vent: O 17 km/h
Température: 20°C
Point de rosée: 12°C
Humidité: 60%
Baromètre: 1013 hPa
Ciel: quelques nuages
Visibilité: 10 km
Détails du ciel: quelques nuages 1128 m
2019/06/20 12:50 EBBR 201250Z 27009KT 240V310 9999 FEW037 20/12 Q1013 NOSIG
LFQI - Cambrai/Epinoy, France
Distance de la station: O 82km
Mise à jour: 29/06/2012 12:30
NOT Current

 Wind from SO
Vent: SO 17 km/h
Température: 18°C
Point de rosée: 14°C
Humidité: 78%
Baromètre: 1009 hPa
2012/06/29 10:30 LFQI 291030Z AUTO 22009KT //// // ///////// 18/14 Q1009
 
LFQQ - Lille/Lesquin, France
Distance de la station: ONO 86km
Mise à jour: 20/06/2019 15:00
partiellement nuageux
partiellement nuageux
 Wind from O
Vent: O 26 km/h
Température: 20°C
Point de rosée: 10°C
Humidité: 53%
Baromètre: 1014 hPa
Ciel: partiellement nuageux
Visibilité: 10 km
Détails du ciel: quelques nuages 1158 m
partiellement nuageux 1585 m
2019/06/20 13:00 LFQQ 201300Z AUTO 26014KT 9999 FEW038 SCT052 20/10 Q1014 NOSIG
EBLG - Bierset/Liege, Belgium
Distance de la station: ENE 89km
Mise à jour: 20/06/2019 14:50
quelques nuages
quelques nuages
 Wind from OSO
Vent: OSO 15 km/h
Température: 18°C
Point de rosée: 14°C
Humidité: 78%
Baromètre: 1013 hPa
Ciel: quelques nuages
Visibilité: 10 km
Détails du ciel: quelques nuages 610 m
2019/06/20 12:50 EBLG 201250Z 24008KT 210V270 9999 FEW020 18/14 Q1013 NOSIG
EBDT - Schaffen, Belgium
Distance de la station: NE 93km
Mise à jour: 20/06/2019 14:55
nuageux
nuageux
 Wind from SSO
Vent: SSO 9 km/h
Température: 20°C
Point de rosée: 14°C
Humidité: 69%
Baromètre: 1013 hPa
Ciel: nuageux
Visibilité: 10 km
Détails du ciel: quelques nuages 762 m
partiellement nuageux 1524 m
nuageux 3048 m
2019/06/20 12:55 EBDT 201255Z 21005KT 9999 FEW025 SCT050 BKN100 20/14 Q1013 BLU BLU TEMPO WHT
 
EBAW - Antwerp/Deurne, Belgium
Distance de la station: N 96km
Mise à jour: 20/06/2019 14:50
quelques nuages
quelques nuages
 Wind from ONO
Vent: ONO 20 km/h
Température: 19°C
Point de rosée: 13°C
Humidité: 68%
Baromètre: 1013 hPa
Ciel: quelques nuages
Visibilité: 10 km
Détails du ciel: quelques nuages 975 m
2019/06/20 12:50 EBAW 201250Z 30011KT 9999 FEW032 19/13 Q1013 NOSIG
LFAQ - Bray, France
Distance de la station: OSO 119km
Mise à jour: 20/06/2019 15:00
nuageux
nuageux
 Wind from ONO
Vent: ONO 22 km/h
Température: 19°C
Point de rosée: 10°C
Humidité: 56%
Baromètre: 1015 hPa
Ciel: nuageux
Visibilité: 10 km
Détails du ciel: partiellement nuageux 1128 m
nuageux 1311 m
nuageux 1524 m
2019/06/20 13:00 LFAQ 201300Z AUTO 29012KT 260V320 9999 SCT037 BKN043 BKN050 19/10 Q1015 NOSIG
LFSR - Reims/Champagne, France
Distance de la station: S 120km
Mise à jour: 16/04/2012 09:00
NOT Current
partiellement nuageux
partiellement nuageux
 Wind from N
Vent: N 17 km/h
Température: 4°C
Température ressentie: 0°C
Point de rosée: 0°C
Humidité: 75%
Baromètre: 1022 hPa
Ciel: partiellement nuageux
Visibilité: 10 km
2012/04/16 07:00 LFSR 160700Z AUTO 01009KT 340V070 9999 NSC 04/00 Q1022
 
EHWO - Woensdrecht, Netherlands
Distance de la station: N 122km
Mise à jour: 20/06/2019 14:55
clair
clair
 Wind from ONO
Vent: ONO 19 km/h
Température: 19°C
Point de rosée: 13°C
Humidité: 68%
Baromètre: 1012 hPa
Ciel: clair
Visibilité: 10 km
2019/06/20 12:55 EHWO 201255Z AUTO 30010KT 230V350 9999 NCD 19/13 Q1012 BLU 29010KT 9999 SCT025
EHBK - Zuid-Limburg, Netherlands
Distance de la station: ENE 123km
Mise à jour: 20/06/2019 14:55
pluie légère, Few clouds
pluie légère, Few clouds
 Wind from OSO
Vent: OSO 13 km/h
Température: 18°C
Point de rosée: 14°C
Humidité: 78%
Baromètre: 1013 hPa
Résumé: pluie légère
Ciel: quelques nuages
Visibilité: 10 km
Détails du ciel: quelques nuages 457 m
2019/06/20 12:55 EHBK 201255Z AUTO 24007KT 210V270 9999 -RA FEW015CB 18/14 Q1013 RERA REDZ TEMPO 7000 SHRA FEW020CB
EBBL - Kleine-Brogel, Belgium
Distance de la station: NE 124km
Mise à jour: 20/06/2019 14:55
nuageux
nuageux
 Wind from SO
Vent: SO 13 km/h
Température: 21°C
Point de rosée: 13°C
Humidité: 60%
Baromètre: 1013 hPa
Ciel: nuageux
Visibilité: 10 km
Détails du ciel: quelques nuages 823 m
partiellement nuageux 1524 m
nuageux 2743 m
2019/06/20 12:55 EBBL 201255Z 23007KT 9999 FEW027 SCT050 BKN090 21/13 Q1013 BLU BLU TEMPO WHT
 
EBLB - Elsenborn, Belgium
Distance de la station: E 135km
Mise à jour: 20/06/2019 14:55
pluie légère, nuageux
pluie légère, nuageux
 Wind from O
Vent: O 9 km/h
Température: 14°C
Point de rosée: 14°C
Humidité: 100%
Baromètre: 1014 hPa
Résumé: pluie légère
Ciel: nuageux
Visibilité: 10 km
Détails du ciel: quelques nuages 152 m
nuageux 183 m
2019/06/20 12:55 EBLB 201255Z AUTO 28005KT 9999 -RA FEW005/// BKN006/// 14/14 Q1014 YLO
EBOS - Oostende Airport, Belgium
Distance de la station: NO 136km
Mise à jour: 20/06/2019 14:50
quelques nuages
quelques nuages
 Wind from O
Vent: O 30 km/h
Température: 18°C
Point de rosée: 10°C
Humidité: 60%
Baromètre: 1014 hPa
Ciel: quelques nuages
Visibilité: 10 km
Détails du ciel: quelques nuages 610 m
2019/06/20 12:50 EBOS 201250Z 28016KT 9999 FEW020 18/10 Q1014 NOSIG
EBFN - Koksijde, Belgium
Distance de la station: NO 140km
Mise à jour: 20/06/2019 14:55
partiellement nuageux
partiellement nuageux
 Wind from O
Vent: O 28 km/h
Température: 18°C
Point de rosée: 10°C
Humidité: 60%
Baromètre: 1014 hPa
Ciel: partiellement nuageux
Visibilité: 10 km
Détails du ciel: quelques nuages 1067 m
partiellement nuageux 1829 m
2019/06/20 12:55 EBFN 201255Z 28015KT 9999 FEW035 SCT060 18/10 Q1014 BLU BLU
 
ETNG - Geilenkirchen, Germany
Distance de la station: ENE 142km
Mise à jour: 19/06/2019 18:50
NOT Current
Nearby thunderstorm, nuageux
Nearby thunderstorm, nuageux
 Wind from ONO
Vent: ONO 15 km/h
Température: 21°C
Point de rosée: 15°C
Humidité: 69%
Baromètre: 1008 hPa
Résumé: Nearby Thunderstorm
Ciel: nuageux
Visibilité: 10 km
Détails du ciel: quelques nuages 1219 m
nuageux 1829 m
2019/06/19 16:50 ETNG 191650Z 29008KT 9999 VCTS FEW040CB BKN060 21/15 Q1008 RERA
EHGR - Gilze-Rijen, Netherlands
Distance de la station: NNE 143km
Mise à jour: 20/06/2019 14:55
nuageux
nuageux
 Wind from ONO
Vent: ONO 22 km/h
Température: 20°C
Point de rosée: 13°C
Humidité: 64%
Baromètre: 1012 hPa
Ciel: nuageux
Visibilité: 10 km
Détails du ciel: quelques nuages 701 m
nuageux 1737 m
2019/06/20 12:55 EHGR 201255Z AUTO 29012KT 240V320 9999 FEW023 BKN057 20/13 Q1012 BLU 23008KT 9999 SCT023
EHEH - Eindhoven, Netherlands
Distance de la station: NNE 147km
Mise à jour: 20/06/2019 14:55
nuageux
nuageux
 Wind from SSO
Vent: SSO 15 km/h
Température: 21°C
Point de rosée: 13°C
Humidité: 60%
Baromètre: 1012 hPa
Ciel: nuageux
Visibilité: 10 km
Détails du ciel: partiellement nuageux 975 m
nuageux 1128 m
nuageux 1280 m
2019/06/20 12:55 EHEH 201255Z AUTO 21008KT 170V260 9999 SCT032 BKN037 BKN042 21/13 Q1012 BLU 23010KT 9999 SCT025 BKN030 BKN035 TEMPO FEW020CB BKN025
 
ELLX - Luxembourg, Luxembourg
Distance de la station: ESE 162km
Mise à jour: 20/06/2019 14:50
partiellement nuageux
partiellement nuageux
 Wind from OSO
Vent: OSO 24 km/h
Température: 20°C
Point de rosée: 12°C
Humidité: 60%
Baromètre: 1014 hPa
Ciel: partiellement nuageux
Visibilité: 10 km
Détails du ciel: quelques nuages 853 m
quelques nuages 1006 m
partiellement nuageux 1280 m
2019/06/20 12:50 ELLX 201250Z 24013KT 200V260 9999 FEW028 FEW033CB SCT042 20/12 Q1014 TEMPO SHRA SCT020CB
EHVK - Volkel, Netherlands
Distance de la station: NE 174km
Mise à jour: 20/06/2019 14:55
nuageux
nuageux
 Wind from SO
Vent: SO 20 km/h
Température: 22°C
Point de rosée: 13°C
Humidité: 57%
Baromètre: 1012 hPa
Ciel: nuageux
Visibilité: 10 km
Détails du ciel: nuageux 1036 m
nuageux 1219 m
nuageux 3658 m
2019/06/20 12:55 EHVK 201255Z AUTO 22011KT 200V270 9999 BKN034 BKN040 BKN120 22/13 Q1012 BLU 22010KT 9999 SCT022 BKN025
LFOK - Chalons/Vatry, France
Distance de la station: S 174km
Mise à jour: 20/06/2019 15:00
nuageux
nuageux
 Wind from O
Vent: O 19 km/h
Température: 19°C
Point de rosée: 14°C
Humidité: 73%
Baromètre: 1015 hPa
Ciel: nuageux
Visibilité: 10 km
Détails du ciel: nuageux 701 m
nuageux 1006 m
nuageux 1219 m
2019/06/20 13:00 LFOK 201300Z AUTO 28010KT 240V300 9999 BKN023 BKN033 BKN040 19/14 Q1015 TEMPO 4000 SHRA BKN030CB

Script from Saratoga-Weather.org